sensor_id;sensor_type;location;lat;lon;timestamp;pressure;altitude;pressure_sealevel;temperature;humidity
76819;BME280;65772;51.096;17.006;2023-06-14T00:00:50;100250.95;;;17.74;49.45
76819;BME280;65772;51.096;17.006;2023-06-14T00:03:21;100250.44;;;17.72;49.55
76819;BME280;65772;51.096;17.006;2023-06-14T00:05:54;100254.76;;;17.70;49.55
76819;BME280;65772;51.096;17.006;2023-06-14T00:08:25;100253.55;;;17.68;49.38
76819;BME280;65772;51.096;17.006;2023-06-14T00:10:55;100252.70;;;17.65;49.51
76819;BME280;65772;51.096;17.006;2023-06-14T00:13:26;100247.52;;;17.64;49.80
76819;BME280;65772;51.096;17.006;2023-06-14T00:15:57;100244.91;;;17.63;49.84
76819;BME280;65772;51.096;17.006;2023-06-14T00:18:27;100246.10;;;17.60;49.61
76819;BME280;65772;51.096;17.006;2023-06-14T00:20:59;100243.52;;;17.58;49.87
76819;BME280;65772;51.096;17.006;2023-06-14T00:23:31;100247.67;;;17.56;49.98
76819;BME280;65772;51.096;17.006;2023-06-14T00:26:02;100249.05;;;17.54;50.06
76819;BME280;65772;51.096;17.006;2023-06-14T00:28:32;100247.83;;;17.51;50.04
76819;BME280;65772;51.096;17.006;2023-06-14T00:31:03;100247.48;;;17.50;50.20
76819;BME280;65772;51.096;17.006;2023-06-14T00:33:33;100244.20;;;17.49;49.96
76819;BME280;65772;51.096;17.006;2023-06-14T00:36:05;100246.30;;;17.46;50.12
76819;BME280;65772;51.096;17.006;2023-06-14T00:38:35;100249.05;;;17.44;50.56
76819;BME280;65772;51.096;17.006;2023-06-14T00:41:06;100249.39;;;17.43;50.70
76819;BME280;65772;51.096;17.006;2023-06-14T00:43:36;100249.55;;;17.41;50.58
76819;BME280;65772;51.096;17.006;2023-06-14T00:46:07;100252.83;;;17.39;50.71
76819;BME280;65772;51.096;17.006;2023-06-14T00:48:40;100249.23;;;17.37;50.53
76819;BME280;65772;51.096;17.006;2023-06-14T00:51:11;100251.30;;;17.35;50.78
76819;BME280;65772;51.096;17.006;2023-06-14T00:53:41;100253.20;;;17.34;50.91
76819;BME280;65772;51.096;17.006;2023-06-14T00:56:17;100252.49;;;17.31;51.00
76819;BME280;65772;51.096;17.006;2023-06-14T00:58:53;100252.66;;;17.29;50.93
76819;BME280;65772;51.096;17.006;2023-06-14T01:01:23;100257.34;;;17.27;51.19
76819;BME280;65772;51.096;17.006;2023-06-14T01:03:54;100258.02;;;17.25;51.32
76819;BME280;65772;51.096;17.006;2023-06-14T01:06:30;100260.95;;;17.23;51.52
76819;BME280;65772;51.096;17.006;2023-06-14T01:09:13;100258.36;;;17.22;51.58
76819;BME280;65772;51.096;17.006;2023-06-14T01:11:50;100260.77;;;17.21;51.44
76819;BME280;65772;51.096;17.006;2023-06-14T01:14:22;100258.17;;;17.18;51.66
76819;BME280;65772;51.096;17.006;2023-06-14T01:16:55;100260.93;;;17.17;51.75
76819;BME280;65772;51.096;17.006;2023-06-14T01:19:27;100264.39;;;17.15;51.62
76819;BME280;65772;51.096;17.006;2023-06-14T01:22:01;100263.20;;;17.13;51.83
76819;BME280;65772;51.096;17.006;2023-06-14T01:24:32;100260.08;;;17.12;51.79
76819;BME280;65772;51.096;17.006;2023-06-14T01:27:02;100258.86;;;17.10;51.78
76819;BME280;65772;51.096;17.006;2023-06-14T01:29:34;100259.55;;;17.05;51.96
76819;BME280;65772;51.096;17.006;2023-06-14T01:32:07;100258.17;;;17.03;52.06
76819;BME280;65772;51.096;17.006;2023-06-14T01:34:38;100255.56;;;17.00;52.02
76819;BME280;65772;51.096;17.006;2023-06-14T01:37:09;100253.84;;;16.98;52.14
76819;BME280;65772;51.096;17.006;2023-06-14T01:39:39;100254.52;;;16.97;52.31
76819;BME280;65772;51.096;17.006;2023-06-14T01:42:10;100253.49;;;16.95;52.49
76819;BME280;65772;51.096;17.006;2023-06-14T01:44:43;100255.91;;;16.94;52.45
76819;BME280;65772;51.096;17.006;2023-06-14T01:47:15;100256.26;;;16.93;52.45
76819;BME280;65772;51.096;17.006;2023-06-14T01:49:47;100254.17;;;16.91;52.45
76819;BME280;65772;51.096;17.006;2023-06-14T01:52:18;100255.71;;;16.89;52.68
76819;BME280;65772;51.096;17.006;2023-06-14T01:54:48;100254.66;;;16.86;52.76
76819;BME280;65772;51.096;17.006;2023-06-14T01:57:20;100253.80;;;16.83;52.52
76819;BME280;65772;51.096;17.006;2023-06-14T01:59:51;100250.89;;;16.80;52.76
76819;BME280;65772;51.096;17.006;2023-06-14T02:02:22;100248.27;;;16.77;52.83
76819;BME280;65772;51.096;17.006;2023-06-14T02:04:52;100249.98;;;16.75;52.73
76819;BME280;65772;51.096;17.006;2023-06-14T02:07:26;100242.59;;;16.73;52.93
76819;BME280;65772;51.096;17.006;2023-06-14T02:09:57;100243.96;;;16.71;53.00
76819;BME280;65772;51.096;17.006;2023-06-14T02:12:27;100244.64;;;16.70;53.12
76819;BME280;65772;51.096;17.006;2023-06-14T02:14:59;100243.94;;;16.67;53.16
76819;BME280;65772;51.096;17.006;2023-06-14T02:17:30;100243.06;;;16.65;53.34
76819;BME280;65772;51.096;17.006;2023-06-14T02:20:01;100243.23;;;16.65;53.28
76819;BME280;65772;51.096;17.006;2023-06-14T02:22:34;100246.15;;;16.64;53.55
76819;BME280;65772;51.096;17.006;2023-06-14T02:25:05;100249.79;;;16.63;53.73
76819;BME280;65772;51.096;17.006;2023-06-14T02:27:36;100251.17;;;16.63;53.72
76819;BME280;65772;51.096;17.006;2023-06-14T02:30:09;100249.27;;;16.62;53.67
76819;BME280;65772;51.096;17.006;2023-06-14T02:32:40;100249.11;;;16.62;53.80
76819;BME280;65772;51.096;17.006;2023-06-14T02:35:14;100252.20;;;16.62;53.91
76819;BME280;65772;51.096;17.006;2023-06-14T02:37:45;100250.31;;;16.62;54.03
76819;BME280;65772;51.096;17.006;2023-06-14T02:40:16;100251.17;;;16.63;54.09
76819;BME280;65772;51.096;17.006;2023-06-14T02:42:47;100251.34;;;16.62;54.20
76819;BME280;65772;51.096;17.006;2023-06-14T02:45:18;100249.27;;;16.62;54.24
76819;BME280;65772;51.096;17.006;2023-06-14T02:47:48;100250.79;;;16.60;54.22
76819;BME280;65772;51.096;17.006;2023-06-14T02:50:19;100246.46;;;16.58;54.28
76819;BME280;65772;51.096;17.006;2023-06-14T02:52:51;100249.05;;;16.57;54.26
76819;BME280;65772;51.096;17.006;2023-06-14T02:55:25;100250.41;;;16.54;54.12
76819;BME280;65772;51.096;17.006;2023-06-14T02:57:56;100250.59;;;16.51;54.11
76819;BME280;65772;51.096;17.006;2023-06-14T03:00:27;100251.77;;;16.47;54.21
76819;BME280;65772;51.096;17.006;2023-06-14T03:02:59;100252.80;;;16.46;54.59
76819;BME280;65772;51.096;17.006;2023-06-14T03:05:29;100255.02;;;16.44;54.67
76819;BME280;65772;51.096;17.006;2023-06-14T03:08:00;100253.47;;;16.40;54.60
76819;BME280;65772;51.096;17.006;2023-06-14T03:10:32;100247.42;;;16.38;54.98
76819;BME280;65772;51.096;17.006;2023-06-14T03:13:03;100246.73;;;16.37;54.99
76819;BME280;65772;51.096;17.006;2023-06-14T03:15:34;100246.55;;;16.34;55.08
76819;BME280;65772;51.096;17.006;2023-06-14T03:18:05;100251.19;;;16.34;55.16
76819;BME280;65772;51.096;17.006;2023-06-14T03:20:37;100248.43;;;16.32;55.23
76819;BME280;65772;51.096;17.006;2023-06-14T03:23:08;100253.44;;;16.30;55.44
76819;BME280;65772;51.096;17.006;2023-06-14T03:25:39;100255.33;;;16.31;55.57
76819;BME280;65772;51.096;17.006;2023-06-14T03:28:12;100257.40;;;16.30;55.51
76819;BME280;65772;51.096;17.006;2023-06-14T03:30:44;100261.71;;;16.31;55.63
76819;BME280;65772;51.096;17.006;2023-06-14T03:33:15;100258.42;;;16.33;55.78
76819;BME280;65772;51.096;17.006;2023-06-14T03:35:45;100261.70;;;16.35;55.92
76819;BME280;65772;51.096;17.006;2023-06-14T03:38:16;100264.64;;;16.36;56.16
76819;BME280;65772;51.096;17.006;2023-06-14T03:40:47;100264.84;;;16.39;55.85
76819;BME280;65772;51.096;17.006;2023-06-14T03:43:18;100266.23;;;16.40;56.03
76819;BME280;65772;51.096;17.006;2023-06-14T03:45:48;100267.08;;;16.43;56.14
76819;BME280;65772;51.096;17.006;2023-06-14T03:48:20;100265.03;;;16.46;56.27
76819;BME280;65772;51.096;17.006;2023-06-14T03:50:51;100264.70;;;16.48;56.25
76819;BME280;65772;51.096;17.006;2023-06-14T03:53:22;100263.52;;;16.51;56.28
76819;BME280;65772;51.096;17.006;2023-06-14T03:55:54;100263.67;;;16.53;56.24
76819;BME280;65772;51.096;17.006;2023-06-14T03:58:29;100265.74;;;16.54;56.08
76819;BME280;65772;51.096;17.006;2023-06-14T04:00:59;100271.27;;;16.56;56.25
76819;BME280;65772;51.096;17.006;2023-06-14T04:03:32;100273.02;;;16.58;56.23
76819;BME280;65772;51.096;17.006;2023-06-14T04:06:03;100270.10;;;16.60;56.25
76819;BME280;65772;51.096;17.006;2023-06-14T04:08:34;100270.98;;;16.61;56.57
76819;BME280;65772;51.096;17.006;2023-06-14T04:11:05;100273.90;;;16.64;56.25
76819;BME280;65772;51.096;17.006;2023-06-14T04:13:36;100271.86;;;16.66;55.96
76819;BME280;65772;51.096;17.006;2023-06-14T04:16:08;100270.82;;;16.66;55.85
76819;BME280;65772;51.096;17.006;2023-06-14T04:18:39;100271.85;;;16.65;55.74
76819;BME280;65772;51.096;17.006;2023-06-14T04:21:10;100276.15;;;16.65;55.78
76819;BME280;65772;51.096;17.006;2023-06-14T04:23:40;100276.50;;;16.64;55.81
76819;BME280;65772;51.096;17.006;2023-06-14T04:26:15;100273.74;;;16.64;55.93
76819;BME280;65772;51.096;17.006;2023-06-14T04:28:47;100276.33;;;16.63;56.10
76819;BME280;65772;51.096;17.006;2023-06-14T04:31:20;100272.88;;;16.64;56.22
76819;BME280;65772;51.096;17.006;2023-06-14T04:33:51;100267.54;;;16.65;56.32
76819;BME280;65772;51.096;17.006;2023-06-14T04:36:24;100266.18;;;16.67;56.27
76819;BME280;65772;51.096;17.006;2023-06-14T04:38:57;100262.73;;;16.69;56.26
76819;BME280;65772;51.096;17.006;2023-06-14T04:41:27;100267.06;;;16.70;56.10
76819;BME280;65772;51.096;17.006;2023-06-14T04:44:01;100270.33;;;16.69;56.13
76819;BME280;65772;51.096;17.006;2023-06-14T04:46:37;100273.27;;;16.70;56.12
76819;BME280;65772;51.096;17.006;2023-06-14T04:49:15;100274.48;;;16.70;56.31
76819;BME280;65772;51.096;17.006;2023-06-14T04:51:47;100273.95;;;16.71;56.60
76819;BME280;65772;51.096;17.006;2023-06-14T04:54:20;100275.17;;;16.72;56.61
76819;BME280;65772;51.096;17.006;2023-06-14T04:56:51;100278.95;;;16.72;56.46
76819;BME280;65772;51.096;17.006;2023-06-14T04:59:24;100280.34;;;16.73;56.38
76819;BME280;65772;51.096;17.006;2023-06-14T05:01:55;100283.77;;;16.74;56.53
76819;BME280;65772;51.096;17.006;2023-06-14T05:04:26;100297.23;;;16.75;56.74
76819;BME280;65772;51.096;17.006;2023-06-14T05:06:58;100292.23;;;16.77;56.69
76819;BME280;65772;51.096;17.006;2023-06-14T05:09:30;100295.35;;;16.79;56.69
76819;BME280;65772;51.096;17.006;2023-06-14T05:12:02;100299.50;;;16.81;56.87
76819;BME280;65772;51.096;17.006;2023-06-14T05:14:32;100298.83;;;16.83;57.02
76819;BME280;65772;51.096;17.006;2023-06-14T05:17:04;100301.40;;;16.87;57.36
76819;BME280;65772;51.096;17.006;2023-06-14T05:19:35;100301.07;;;16.90;57.12
76819;BME280;65772;51.096;17.006;2023-06-14T05:22:06;100301.42;;;16.92;57.07
76819;BME280;65772;51.096;17.006;2023-06-14T05:24:36;100304.20;;;16.94;57.41
76819;BME280;65772;51.096;17.006;2023-06-14T05:27:07;100306.94;;;16.97;57.64
76819;BME280;65772;51.096;17.006;2023-06-14T05:29:38;100308.51;;;16.99;57.57
76819;BME280;65772;51.096;17.006;2023-06-14T05:32:10;100304.89;;;17.00;57.77
76819;BME280;65772;51.096;17.006;2023-06-14T05:34:40;100301.10;;;17.01;57.78
76819;BME280;65772;51.096;17.006;2023-06-14T05:37:11;100300.94;;;17.02;57.84
76819;BME280;65772;51.096;17.006;2023-06-14T05:39:42;100295.60;;;17.03;57.86
76819;BME280;65772;51.096;17.006;2023-06-14T05:42:13;100302.33;;;17.05;58.07
76819;BME280;65772;51.096;17.006;2023-06-14T05:44:43;100301.11;;;17.07;58.14
76819;BME280;65772;51.096;17.006;2023-06-14T05:47:14;100305.59;;;17.08;58.08
76819;BME280;65772;51.096;17.006;2023-06-14T05:49:44;100303.17;;;17.09;57.91
76819;BME280;65772;51.096;17.006;2023-06-14T05:52:15;100303.02;;;17.09;57.66
76819;BME280;65772;51.096;17.006;2023-06-14T05:54:46;100304.22;;;17.08;57.41
76819;BME280;65772;51.096;17.006;2023-06-14T05:57:16;100303.35;;;17.06;57.53
76819;BME280;65772;51.096;17.006;2023-06-14T05:59:47;100300.61;;;17.04;57.51
76819;BME280;65772;51.096;17.006;2023-06-14T06:02:17;100304.20;;;17.00;57.70
76819;BME280;65772;51.096;17.006;2023-06-14T06:04:48;100306.44;;;17.00;58.00
76819;BME280;65772;51.096;17.006;2023-06-14T06:07:19;100307.98;;;16.99;58.00
76819;BME280;65772;51.096;17.006;2023-06-14T06:09:49;100310.73;;;16.97;57.92
76819;BME280;65772;51.096;17.006;2023-06-14T06:12:20;100312.80;;;16.95;57.93
76819;BME280;65772;51.096;17.006;2023-06-14T06:14:50;100314.71;;;16.93;57.93
76819;BME280;65772;51.096;17.006;2023-06-14T06:17:21;100313.48;;;16.90;57.91
76819;BME280;65772;51.096;17.006;2023-06-14T06:19:52;100317.96;;;16.89;57.92
76819;BME280;65772;51.096;17.006;2023-06-14T06:22:22;100315.20;;;16.89;58.38
76819;BME280;65772;51.096;17.006;2023-06-14T06:24:53;100317.13;;;16.91;58.46
76819;BME280;65772;51.096;17.006;2023-06-14T06:27:24;100320.92;;;16.93;58.23
76819;BME280;65772;51.096;17.006;2023-06-14T06:29:54;100324.38;;;16.94;58.20
76819;BME280;65772;51.096;17.006;2023-06-14T06:32:25;100326.94;;;16.96;58.26
76819;BME280;65772;51.096;17.006;2023-06-14T06:34:56;100326.61;;;16.98;58.48
76819;BME280;65772;51.096;17.006;2023-06-14T06:37:29;100322.15;;;17.01;58.34
76819;BME280;65772;51.096;17.006;2023-06-14T06:39:59;100325.27;;;17.04;58.30
76819;BME280;65772;51.096;17.006;2023-06-14T06:42:30;100325.77;;;17.07;58.35
76819;BME280;65772;51.096;17.006;2023-06-14T06:45:05;100329.92;;;17.10;58.59
76819;BME280;65772;51.096;17.006;2023-06-14T06:47:34;100332.54;;;17.14;58.37
76819;BME280;65772;51.096;17.006;2023-06-14T06:50:07;100331.67;;;17.17;58.40
76819;BME280;65772;51.096;17.006;2023-06-14T06:52:38;100333.74;;;17.19;58.44
76819;BME280;65772;51.096;17.006;2023-06-14T06:55:09;100339.45;;;17.22;58.46
76819;BME280;65772;51.096;17.006;2023-06-14T06:57:42;100342.92;;;17.25;58.43
76819;BME280;65772;51.096;17.006;2023-06-14T07:00:14;100344.45;;;17.27;58.32
76819;BME280;65772;51.096;17.006;2023-06-14T07:02:46;100347.73;;;17.29;58.38
76819;BME280;65772;51.096;17.006;2023-06-14T07:05:17;100353.09;;;17.31;58.30
76819;BME280;65772;51.096;17.006;2023-06-14T07:07:48;100353.09;;;17.32;58.25
76819;BME280;65772;51.096;17.006;2023-06-14T07:10:19;100355.00;;;17.32;58.32
76819;BME280;65772;51.096;17.006;2023-06-14T07:12:49;100355.52;;;17.33;58.41
76819;BME280;65772;51.096;17.006;2023-06-14T07:15:20;100355.00;;;17.34;58.39
76819;BME280;65772;51.096;17.006;2023-06-14T07:17:50;100357.95;;;17.34;58.40
76819;BME280;65772;51.096;17.006;2023-06-14T07:20:22;100353.98;;;17.35;58.28
76819;BME280;65772;51.096;17.006;2023-06-14T07:22:54;100351.73;;;17.36;58.55
76819;BME280;65772;51.096;17.006;2023-06-14T07:25:24;100353.62;;;17.39;58.64
76819;BME280;65772;51.096;17.006;2023-06-14T07:27:55;100356.23;;;17.45;58.88
76819;BME280;65772;51.096;17.006;2023-06-14T07:30:26;100347.09;;;17.51;58.90
76819;BME280;65772;51.096;17.006;2023-06-14T07:32:59;100331.22;;;17.56;59.13
76819;BME280;65772;51.096;17.006;2023-06-14T07:35:29;100331.02;;;17.61;59.16
76819;BME280;65772;51.096;17.006;2023-06-14T07:38:00;100335.05;;;17.65;59.25
76819;BME280;65772;51.096;17.006;2023-06-14T07:40:30;100337.80;;;17.69;59.26
76819;BME280;65772;51.096;17.006;2023-06-14T07:43:01;100340.75;;;17.74;59.07
76819;BME280;65772;51.096;17.006;2023-06-14T07:45:31;100345.23;;;17.77;59.30
76819;BME280;65772;51.096;17.006;2023-06-14T07:48:02;100346.26;;;17.80;59.22
76819;BME280;65772;51.096;17.006;2023-06-14T07:50:33;100346.95;;;17.84;59.27
76819;BME280;65772;51.096;17.006;2023-06-14T07:53:04;100346.79;;;17.87;58.67
76819;BME280;65772;51.096;17.006;2023-06-14T07:55:34;100347.66;;;17.89;58.33
76819;BME280;65772;51.096;17.006;2023-06-14T07:58:21;100344.03;;;17.90;58.07
76819;BME280;65772;51.096;17.006;2023-06-14T08:00:52;100346.77;;;17.91;58.10
76819;BME280;65772;51.096;17.006;2023-06-14T08:03:23;100349.36;;;17.92;57.82
76819;BME280;65772;51.096;17.006;2023-06-14T08:05:54;100349.20;;;17.92;57.79
76819;BME280;65772;51.096;17.006;2023-06-14T08:08:25;100351.95;;;17.94;57.77
76819;BME280;65772;51.096;17.006;2023-06-14T08:10:55;100350.05;;;17.95;57.80
76819;BME280;65772;51.096;17.006;2023-06-14T08:13:26;100345.75;;;17.97;57.73
76819;BME280;65772;51.096;17.006;2023-06-14T08:15:56;100343.16;;;17.98;57.43
76819;BME280;65772;51.096;17.006;2023-06-14T08:18:27;100343.67;;;17.98;57.31
76819;BME280;65772;51.096;17.006;2023-06-14T08:20:58;100346.96;;;17.99;57.40
76819;BME280;65772;51.096;17.006;2023-06-14T08:23:28;100343.85;;;17.98;57.45
76819;BME280;65772;51.096;17.006;2023-06-14T08:25:59;100339.88;;;17.99;57.62
76819;BME280;65772;51.096;17.006;2023-06-14T08:28:33;100336.26;;;17.99;57.47
76819;BME280;65772;51.096;17.006;2023-06-14T08:31:03;100339.88;;;17.99;57.44
76819;BME280;65772;51.096;17.006;2023-06-14T08:33:34;100345.23;;;18.00;57.17
76819;BME280;65772;51.096;17.006;2023-06-14T08:36:06;100342.81;;;18.00;57.30
76819;BME280;65772;51.096;17.006;2023-06-14T08:38:36;100346.27;;;18.00;57.34
76819;BME280;65772;51.096;17.006;2023-06-14T08:41:07;100349.53;;;18.01;57.21
76819;BME280;65772;51.096;17.006;2023-06-14T08:43:38;100348.66;;;18.02;57.28
76819;BME280;65772;51.096;17.006;2023-06-14T08:46:09;100344.86;;;18.02;57.13
76819;BME280;65772;51.096;17.006;2023-06-14T08:48:41;100344.70;;;18.03;57.30
76819;BME280;65772;51.096;17.006;2023-06-14T08:51:13;100345.05;;;18.05;57.34
76819;BME280;65772;51.096;17.006;2023-06-14T08:53:45;100345.05;;;18.07;57.30
76819;BME280;65772;51.096;17.006;2023-06-14T08:56:20;100344.36;;;18.09;57.59
76819;BME280;65772;51.096;17.006;2023-06-14T08:58:55;100341.57;;;18.13;57.86
76819;BME280;65772;51.096;17.006;2023-06-14T09:01:26;100343.98;;;18.18;57.61
76819;BME280;65772;51.096;17.006;2023-06-14T09:03:57;100348.98;;;18.22;57.38
76819;BME280;65772;51.096;17.006;2023-06-14T09:06:28;100352.95;;;18.27;57.40
76819;BME280;65772;51.096;17.006;2023-06-14T09:08:59;100350.19;;;18.31;57.25
76819;BME280;65772;51.096;17.006;2023-06-14T09:11:31;100351.73;;;18.35;57.29
76819;BME280;65772;51.096;17.006;2023-06-14T09:14:02;100353.11;;;18.38;56.98
76819;BME280;65772;51.096;17.006;2023-06-14T09:16:35;100347.40;;;18.41;56.85
76819;BME280;65772;51.096;17.006;2023-06-14T09:19:05;100346.02;;;18.43;56.46
76819;BME280;65772;51.096;17.006;2023-06-14T09:21:36;100344.42;;;18.45;56.63
76819;BME280;65772;51.096;17.006;2023-06-14T09:24:14;100344.27;;;18.48;56.89
76819;BME280;65772;51.096;17.006;2023-06-14T09:26:48;100346.86;;;18.51;56.76
76819;BME280;65772;51.096;17.006;2023-06-14T09:29:19;100350.13;;;18.54;56.55
76819;BME280;65772;51.096;17.006;2023-06-14T09:31:49;100345.79;;;18.56;56.49
76819;BME280;65772;51.096;17.006;2023-06-14T09:34:21;100346.86;;;18.58;56.53
76819;BME280;65772;51.096;17.006;2023-06-14T09:36:53;100341.33;;;18.61;56.58
76819;BME280;65772;51.096;17.006;2023-06-14T09:39:24;100339.41;;;18.64;56.66
76819;BME280;65772;51.096;17.006;2023-06-14T09:41:56;100338.86;;;18.67;56.60
76819;BME280;65772;51.096;17.006;2023-06-14T09:44:27;100339.03;;;18.70;56.69
76819;BME280;65772;51.096;17.006;2023-06-14T09:46:59;100337.66;;;18.71;56.65
76819;BME280;65772;51.096;17.006;2023-06-14T09:49:29;100345.09;;;18.72;56.20
76819;BME280;65772;51.096;17.006;2023-06-14T09:52:03;100345.27;;;18.72;56.27
76819;BME280;65772;51.096;17.006;2023-06-14T09:54:35;100344.92;;;18.72;56.39
76819;BME280;65772;51.096;17.006;2023-06-14T09:57:12;100348.02;;;18.72;56.95
76819;BME280;65772;51.096;17.006;2023-06-14T09:59:45;100349.58;;;18.71;57.36
76819;BME280;65772;51.096;17.006;2023-06-14T10:02:24;100345.44;;;18.69;57.69
76819;BME280;65772;51.096;17.006;2023-06-14T10:05:01;100353.05;;;18.68;58.15
76819;BME280;65772;51.096;17.006;2023-06-14T10:07:38;100359.09;;;18.68;58.49
76819;BME280;65772;51.096;17.006;2023-06-14T10:10:10;100358.75;;;18.68;59.01
76819;BME280;65772;51.096;17.006;2023-06-14T10:12:41;100364.80;;;18.72;59.25
76819;BME280;65772;51.096;17.006;2023-06-14T10:15:17;100365.28;;;18.78;59.10
76819;BME280;65772;51.096;17.006;2023-06-14T10:17:54;100366.32;;;18.83;58.98
76819;BME280;65772;51.096;17.006;2023-06-14T10:20:32;100362.83;;;18.90;58.85
76819;BME280;65772;51.096;17.006;2023-06-14T10:23:06;100360.36;;;18.98;59.07
76819;BME280;65772;51.096;17.006;2023-06-14T10:25:38;100357.91;;;19.06;59.38
76819;BME280;65772;51.096;17.006;2023-06-14T10:28:19;100359.08;;;19.12;58.90
76819;BME280;65772;51.096;17.006;2023-06-14T10:31:07;100355.23;;;19.18;58.54
76819;BME280;65772;51.096;17.006;2023-06-14T10:33:48;100353.14;;;19.22;58.18
76819;BME280;65772;51.096;17.006;2023-06-14T10:36:27;100352.27;;;19.25;58.13
76819;BME280;65772;51.096;17.006;2023-06-14T10:39:04;100350.86;;;19.28;57.64
76819;BME280;65772;51.096;17.006;2023-06-14T10:41:37;100352.39;;;19.30;57.37
76819;BME280;65772;51.096;17.006;2023-06-14T10:44:40;100346.85;;;19.30;57.19
76819;BME280;65772;51.096;17.006;2023-06-14T10:47:10;100348.58;;;19.31;57.05
76819;BME280;65772;51.096;17.006;2023-06-14T10:49:44;100349.09;;;19.32;56.64
76819;BME280;65772;51.096;17.006;2023-06-14T10:52:15;100348.23;;;19.34;56.73
76819;BME280;65772;51.096;17.006;2023-06-14T10:55:12;100346.45;;;19.38;56.35
76819;BME280;65772;51.096;17.006;2023-06-14T10:57:46;100340.54;;;19.43;56.34
76819;BME280;65772;51.096;17.006;2023-06-14T11:00:23;100338.10;;;19.46;55.90
76819;BME280;65772;51.096;17.006;2023-06-14T11:03:31;100333.95;;;19.48;55.64
76819;BME280;65772;51.096;17.006;2023-06-14T11:06:14;100332.20;;;19.50;55.55
76819;BME280;65772;51.096;17.006;2023-06-14T11:09:23;100331.49;;;19.52;55.45
76819;BME280;65772;51.096;17.006;2023-06-14T11:12:03;100329.59;;;19.53;54.84
76819;BME280;65772;51.096;17.006;2023-06-14T11:14:34;100330.45;;;19.53;54.77
76819;BME280;65772;51.096;17.006;2023-06-14T11:17:05;100327.68;;;19.53;54.86
76819;BME280;65772;51.096;17.006;2023-06-14T11:19:36;100330.28;;;19.52;54.51
76819;BME280;65772;51.096;17.006;2023-06-14T11:22:07;100324.05;;;19.51;54.27
76819;BME280;65772;51.096;17.006;2023-06-14T11:24:38;100326.16;;;19.50;54.09
76819;BME280;65772;51.096;17.006;2023-06-14T11:27:09;100324.08;;;19.50;54.12
76819;BME280;65772;51.096;17.006;2023-06-14T11:29:49;100319.59;;;19.49;54.15
76819;BME280;65772;51.096;17.006;2023-06-14T11:32:19;100318.20;;;19.48;54.26
76819;BME280;65772;51.096;17.006;2023-06-14T11:34:50;100314.91;;;19.48;53.67
76819;BME280;65772;51.096;17.006;2023-06-14T11:37:21;100318.19;;;19.47;53.31
76819;BME280;65772;51.096;17.006;2023-06-14T11:39:55;100319.05;;;19.47;53.55
76819;BME280;65772;51.096;17.006;2023-06-14T11:42:27;100321.99;;;19.47;53.85
76819;BME280;65772;51.096;17.006;2023-06-14T11:44:59;100319.40;;;19.46;54.14
76819;BME280;65772;51.096;17.006;2023-06-14T11:47:39;100322.70;;;19.47;54.08
76819;BME280;65772;51.096;17.006;2023-06-14T11:50:10;100318.89;;;19.49;54.05
76819;BME280;65772;51.096;17.006;2023-06-14T11:52:41;100317.65;;;19.52;54.22
76819;BME280;65772;51.096;17.006;2023-06-14T11:55:12;100314.00;;;19.53;54.40
76819;BME280;65772;51.096;17.006;2023-06-14T11:57:43;100313.13;;;19.56;54.20
76819;BME280;65772;51.096;17.006;2023-06-14T12:00:15;100311.56;;;19.58;54.53
76819;BME280;65772;51.096;17.006;2023-06-14T12:02:55;100313.77;;;19.60;54.89
76819;BME280;65772;51.096;17.006;2023-06-14T12:05:27;100308.73;;;19.63;54.70
76819;BME280;65772;51.096;17.006;2023-06-14T12:08:01;100308.38;;;19.65;53.98
76819;BME280;65772;51.096;17.006;2023-06-14T12:10:40;100305.25;;;19.66;53.93
76819;BME280;65772;51.096;17.006;2023-06-14T12:13:13;100304.20;;;19.67;54.07
76819;BME280;65772;51.096;17.006;2023-06-14T12:15:55;100301.44;;;19.66;54.19
76819;BME280;65772;51.096;17.006;2023-06-14T12:18:34;100301.95;;;19.67;54.53
76819;BME280;65772;51.096;17.006;2023-06-14T12:21:06;100300.23;;;19.67;54.57
76819;BME280;65772;51.096;17.006;2023-06-14T12:23:43;100299.52;;;19.68;54.19
76819;BME280;65772;51.096;17.006;2023-06-14T12:26:16;100301.60;;;19.68;53.34
76819;BME280;65772;51.096;17.006;2023-06-14T12:28:47;100297.09;;;19.67;52.79
76819;BME280;65772;51.096;17.006;2023-06-14T12:31:18;100299.35;;;19.67;52.55
76819;BME280;65772;51.096;17.006;2023-06-14T12:33:49;100300.73;;;19.66;52.46
76819;BME280;65772;51.096;17.006;2023-06-14T12:36:20;100300.05;;;19.67;52.77
76819;BME280;65772;51.096;17.006;2023-06-14T12:38:51;100303.16;;;19.68;52.90
76819;BME280;65772;51.096;17.006;2023-06-14T12:41:22;100301.42;;;19.68;53.26
76819;BME280;65772;51.096;17.006;2023-06-14T12:43:54;100301.92;;;19.70;53.34
76819;BME280;65772;51.096;17.006;2023-06-14T12:46:24;100299.46;;;19.73;53.51
76819;BME280;65772;51.096;17.006;2023-06-14T12:48:55;100302.91;;;19.75;53.35
76819;BME280;65772;51.096;17.006;2023-06-14T12:51:25;100299.27;;;19.78;53.20
76819;BME280;65772;51.096;17.006;2023-06-14T12:53:56;100298.04;;;19.80;53.25
76819;BME280;65772;51.096;17.006;2023-06-14T12:56:26;100300.27;;;19.81;53.36
76819;BME280;65772;51.096;17.006;2023-06-14T12:58:57;100297.11;;;19.82;53.69
76819;BME280;65772;51.096;17.006;2023-06-14T13:01:28;100301.45;;;19.83;53.75
76819;BME280;65772;51.096;17.006;2023-06-14T13:03:59;100295.39;;;19.82;53.65
76819;BME280;65772;51.096;17.006;2023-06-14T13:06:29;100296.61;;;19.82;53.46